createdAt,value
2023-05-21T00:03:43.435Z,16.27
2023-05-21T00:07:49.681Z,13.05
2023-05-21T00:11:52.734Z,12.48
2023-05-21T00:16:01.460Z,13.45
2023-05-21T00:20:10.120Z,12.07
2023-05-21T00:24:19.861Z,16.70
2023-05-21T00:28:22.913Z,12.95
2023-05-21T00:32:26.321Z,13.23
2023-05-21T00:36:37.027Z,16.20
2023-05-21T00:40:41.615Z,15.80
2023-05-21T00:44:49.717Z,14.80
2023-05-21T00:48:54.088Z,14.43
2023-05-21T00:52:59.953Z,17.77
2023-05-21T00:57:05.876Z,14.07
2023-05-21T01:01:14.133Z,15.90
2023-05-21T01:05:17.370Z,13.35
2023-05-21T01:09:23.815Z,14.20
2023-05-21T01:13:28.194Z,14.82
2023-05-21T01:17:32.104Z,12.70
2023-05-21T01:21:40.133Z,15.77
2023-05-21T01:25:44.886Z,14.35
2023-05-21T01:29:49.092Z,15.25
2023-05-21T01:33:55.762Z,16.73
2023-05-21T01:38:08.695Z,15.38
2023-05-21T01:42:14.430Z,19.27
2023-05-21T01:46:22.926Z,26.45
2023-05-21T01:50:33.089Z,23.95
2023-05-21T01:54:36.195Z,15.48
2023-05-21T01:58:46.504Z,15.77
2023-05-21T02:03:00.588Z,18.25
2023-05-21T02:07:03.756Z,19.67
2023-05-21T02:11:07.264Z,14.07
2023-05-21T02:15:12.043Z,18.90
2023-05-21T02:19:17.459Z,16.75
2023-05-21T02:23:20.741Z,20.75
2023-05-21T02:27:29.118Z,18.42
2023-05-21T02:31:36.286Z,17.08
2023-05-21T02:35:41.786Z,16.40
2023-05-21T02:39:46.650Z,16.90
2023-05-21T02:43:49.690Z,18.52
2023-05-21T02:47:55.697Z,17.05
2023-05-21T02:51:58.767Z,17.77
2023-05-21T02:56:01.790Z,16.77
2023-05-21T03:04:28.476Z,18.45
2023-05-21T03:08:32.047Z,16.65
2023-05-21T03:12:37.552Z,17.88
2023-05-21T03:16:41.914Z,17.42
2023-05-21T03:20:50.394Z,21.10
2023-05-21T03:24:53.905Z,22.75
2023-05-21T03:28:57.817Z,22.88
2023-05-21T03:33:03.524Z,24.13
2023-05-21T03:37:08.177Z,19.42
2023-05-21T03:41:12.255Z,19.92
2023-05-21T03:45:15.594Z,21.08
2023-05-21T03:49:18.709Z,20.83
2023-05-21T03:53:30.385Z,23.85
2023-05-21T03:57:35.014Z,19.10
2023-05-21T04:01:39.221Z,17.83
2023-05-21T04:05:45.097Z,20.33
2023-05-21T04:09:52.736Z,18.90
2023-05-21T04:13:58.316Z,20.02
2023-05-21T04:18:01.355Z,21.88
2023-05-21T04:22:05.404Z,20.70
2023-05-21T04:26:09.882Z,17.10
2023-05-21T04:30:13.890Z,22.27
2023-05-21T04:34:18.074Z,18.92
2023-05-21T04:38:24.553Z,16.13
2023-05-21T04:42:30.062Z,19.83
2023-05-21T04:46:35.029Z,19.63
2023-05-21T04:50:41.703Z,18.25
2023-05-21T04:54:49.991Z,18.75
2023-05-21T04:58:58.908Z,18.63
2023-05-21T05:03:03.050Z,16.17
2023-05-21T05:07:11.981Z,21.25
2023-05-21T05:11:18.402Z,17.17
2023-05-21T05:15:27.658Z,15.50
2023-05-21T05:19:32.646Z,16.05
2023-05-21T05:23:40.979Z,15.40
2023-05-21T05:27:44.126Z,17.00
2023-05-21T05:31:48.574Z,15.27
2023-05-21T05:35:51.986Z,18.05
2023-05-21T05:39:57.966Z,15.30
2023-05-21T05:44:02.796Z,19.05
2023-05-21T05:48:09.583Z,16.35
2023-05-21T05:52:12.752Z,14.77
2023-05-21T05:56:17.186Z,13.75
2023-05-21T06:00:20.446Z,13.88
2023-05-21T06:04:24.901Z,13.75
2023-05-21T06:08:30.994Z,14.05
2023-05-21T06:12:34.247Z,13.65
2023-05-21T06:16:37.821Z,13.68
2023-05-21T06:20:43.552Z,15.25
2023-05-21T06:24:46.769Z,13.50
2023-05-21T06:29:09.239Z,23.50
2023-05-21T06:33:21.898Z,13.25
2023-05-21T06:37:50.504Z,15.35
2023-05-21T06:41:53.543Z,14.27
2023-05-21T06:46:02.200Z,14.07
2023-05-21T06:50:06.027Z,14.52
2023-05-21T07:00:14.646Z,13.55
2023-05-21T07:04:37.752Z,15.88
2023-05-21T07:14:10.548Z,13.90
2023-05-21T07:18:24.248Z,14.48
2023-05-21T07:43:14.733Z,17.52
2023-05-21T07:47:28.470Z,13.15
2023-05-21T07:51:32.328Z,12.02
2023-05-21T07:55:36.968Z,14.13
2023-05-21T07:59:44.719Z,15.82
2023-05-21T08:03:50.684Z,15.30
2023-05-21T08:07:56.848Z,13.02
2023-05-21T08:11:59.906Z,12.90
2023-05-21T08:16:04.791Z,15.15
2023-05-21T08:20:10.442Z,16.33
2023-05-21T08:24:13.531Z,11.25
2023-05-21T08:28:19.559Z,12.57
2023-05-21T08:32:24.072Z,11.15
2023-05-21T08:36:28.227Z,11.77
2023-05-21T08:40:32.264Z,13.95
2023-05-21T08:44:44.375Z,10.02
2023-05-21T08:48:51.710Z,10.30
2023-05-21T08:52:55.428Z,13.75
2023-05-21T08:57:02.698Z,10.73
2023-05-21T09:01:06.713Z,13.82
2023-05-21T09:05:11.986Z,11.88
2023-05-21T09:09:22.583Z,10.70
2023-05-21T09:13:27.401Z,10.60
2023-05-21T09:17:30.853Z,13.15
2023-05-21T09:21:43.111Z,10.10
2023-05-21T09:25:47.628Z,10.45
2023-05-21T09:29:52.555Z,8.35
2023-05-21T09:33:56.347Z,9.60
2023-05-21T09:38:04.522Z,9.77
2023-05-21T09:42:07.958Z,12.52
2023-05-21T09:46:17.261Z,9.30
2023-05-21T09:50:24.153Z,11.90
2023-05-21T09:54:35.663Z,18.85
2023-05-21T09:58:40.253Z,28.63
2023-05-21T10:02:47.676Z,16.65
2023-05-21T10:06:53.500Z,10.45
2023-05-21T10:11:01.326Z,9.73
2023-05-21T10:15:09.982Z,7.70
2023-05-21T10:19:16.978Z,10.45
2023-05-21T10:23:20.425Z,11.35
2023-05-21T10:27:24.924Z,11.00
2023-05-21T10:31:28.685Z,8.07
2023-05-21T10:35:32.741Z,8.00
2023-05-21T10:39:40.105Z,10.23
2023-05-21T10:43:59.079Z,8.13
2023-05-21T10:48:22.279Z,9.70
2023-05-21T10:52:45.987Z,8.82
2023-05-21T10:57:03.261Z,9.15
2023-05-21T11:01:09.363Z,6.45
2023-05-21T11:05:12.468Z,10.13
2023-05-21T11:09:17.284Z,7.18
2023-05-21T11:13:21.743Z,6.95
2023-05-21T11:17:44.593Z,8.73
2023-05-21T11:21:52.538Z,10.00
2023-05-21T11:26:02.596Z,11.75
2023-05-21T11:30:08.193Z,6.68
2023-05-21T11:34:23.039Z,9.80
2023-05-21T11:38:29.664Z,9.82
2023-05-21T11:42:34.145Z,10.98
2023-05-21T11:46:43.243Z,7.50
2023-05-21T11:50:52.011Z,7.15
2023-05-21T11:54:59.313Z,10.45
2023-05-21T11:59:03.682Z,10.95
2023-05-21T12:03:08.445Z,13.05
2023-05-21T12:07:26.333Z,9.70
2023-05-21T12:11:30.625Z,6.80
2023-05-21T12:15:33.898Z,10.32
2023-05-21T12:19:41.281Z,6.60
2023-05-21T12:23:49.400Z,8.25
2023-05-21T12:28:03.548Z,8.43
2023-05-21T12:32:09.377Z,10.35
2023-05-21T12:36:20.624Z,11.38
2023-05-21T12:40:37.218Z,12.35
2023-05-21T12:44:45.716Z,7.68
2023-05-21T12:48:54.592Z,7.93
2023-05-21T12:53:00.136Z,9.95
2023-05-21T12:57:23.429Z,9.98
2023-05-21T13:01:26.614Z,7.97
2023-05-21T13:05:30.385Z,7.07
2023-05-21T13:09:36.310Z,6.57
2023-05-21T13:13:41.881Z,7.05
2023-05-21T13:17:48.478Z,9.57
2023-05-21T13:21:53.498Z,6.90
2023-05-21T13:25:56.532Z,9.07
2023-05-21T13:30:01.117Z,14.15
2023-05-21T13:34:05.643Z,6.60
2023-05-21T13:38:09.080Z,7.50
2023-05-21T13:42:12.148Z,10.55
2023-05-21T13:46:16.741Z,8.23
2023-05-21T13:50:20.149Z,6.70
2023-05-21T13:54:26.179Z,7.13
2023-05-21T13:58:34.482Z,9.45
2023-05-21T14:02:39.346Z,6.85
2023-05-21T14:06:45.161Z,6.05
2023-05-21T14:10:49.715Z,8.40
2023-05-21T14:15:00.039Z,6.22
2023-05-21T14:19:06.057Z,6.63
2023-05-21T14:23:17.268Z,6.68
2023-05-21T14:27:20.311Z,7.88
2023-05-21T14:31:25.101Z,6.10
2023-05-21T14:35:34.160Z,10.60
2023-05-21T14:39:37.426Z,6.75
2023-05-21T14:43:40.503Z,6.68
2023-05-21T14:47:45.177Z,6.82
2023-05-21T14:51:52.519Z,8.90
2023-05-21T14:55:55.548Z,7.22
2023-05-21T15:00:01.549Z,6.18
2023-05-21T15:04:09.116Z,6.10
2023-05-21T15:08:13.879Z,7.70
2023-05-21T15:12:17.111Z,6.15
2023-05-21T15:16:21.301Z,7.20
2023-05-21T15:20:24.467Z,8.80
2023-05-21T15:24:29.296Z,5.53
2023-05-21T15:28:37.386Z,5.88
2023-05-21T15:32:40.767Z,7.40
2023-05-21T15:36:46.907Z,7.10
2023-05-21T15:40:54.787Z,7.05
2023-05-21T15:44:58.996Z,7.50
2023-05-21T15:49:05.365Z,8.48
2023-05-21T15:53:09.362Z,6.03
2023-05-21T15:57:13.861Z,9.38
2023-05-21T16:01:19.713Z,7.45
2023-05-21T16:05:24.774Z,6.32
2023-05-21T16:09:30.421Z,6.60
2023-05-21T16:13:34.850Z,5.97
2023-05-21T16:17:38.342Z,11.25
2023-05-21T16:21:43.327Z,8.02
2023-05-21T16:25:49.258Z,7.18
2023-05-21T16:29:58.817Z,8.38
2023-05-21T16:34:01.909Z,9.45
2023-05-21T16:38:05.136Z,7.55
2023-05-21T16:42:13.910Z,6.65
2023-05-21T16:46:21.423Z,6.55
2023-05-21T16:50:25.501Z,7.22
2023-05-21T16:54:45.798Z,6.10
2023-05-21T16:58:54.361Z,7.97
2023-05-21T17:03:00.565Z,6.15
2023-05-21T17:07:03.702Z,6.65
2023-05-21T17:11:08.412Z,14.32
2023-05-21T17:15:14.446Z,6.32
2023-05-21T17:19:18.982Z,5.88
2023-05-21T17:23:24.408Z,5.97
2023-05-21T17:27:28.666Z,6.13
2023-05-21T17:31:33.000Z,5.78
2023-05-21T17:35:41.837Z,6.32
2023-05-21T17:39:45.892Z,5.43
2023-05-21T17:43:52.021Z,6.53
2023-05-21T17:47:56.133Z,7.78
2023-05-21T17:52:04.538Z,9.20
2023-05-21T17:56:10.508Z,7.53
2023-05-21T18:00:17.104Z,7.45
2023-05-21T18:04:20.592Z,8.32
2023-05-21T18:08:27.354Z,12.50
2023-05-21T18:12:30.910Z,6.03
2023-05-21T18:16:36.758Z,8.63
2023-05-21T18:20:43.294Z,6.55
2023-05-21T18:24:47.960Z,6.03
2023-05-21T18:28:53.276Z,9.75
2023-05-21T18:32:59.814Z,7.90
2023-05-21T18:37:05.392Z,11.27
2023-05-21T18:41:10.043Z,9.07
2023-05-21T18:45:16.424Z,9.40
2023-05-21T18:49:21.357Z,11.52
2023-05-21T18:53:26.429Z,9.15
2023-05-21T18:57:31.383Z,7.65
2023-05-21T19:01:36.372Z,7.75
2023-05-21T19:05:40.115Z,10.68
2023-05-21T19:09:45.084Z,17.33
2023-05-21T19:13:49.615Z,13.02
2023-05-21T19:17:52.919Z,8.65
2023-05-21T19:21:57.321Z,8.93
2023-05-21T19:26:03.174Z,9.88
2023-05-21T19:30:12.264Z,7.35
2023-05-21T19:34:15.477Z,9.52
2023-05-21T19:38:18.860Z,9.05
2023-05-21T19:42:24.460Z,10.80
2023-05-21T19:46:31.742Z,12.18
2023-05-21T19:50:37.495Z,9.13
2023-05-21T19:54:40.696Z,11.27
2023-05-21T19:58:47.832Z,12.10
2023-05-21T20:03:03.946Z,16.27
2023-05-21T20:07:07.422Z,13.20
2023-05-21T20:11:13.308Z,8.40
2023-05-21T20:15:19.014Z,9.55
2023-05-21T20:19:26.208Z,15.85
2023-05-21T20:23:31.524Z,8.68
2023-05-21T20:27:35.711Z,7.97
2023-05-21T20:31:38.864Z,8.82
2023-05-21T20:35:43.372Z,9.20
2023-05-21T20:39:48.277Z,11.23
2023-05-21T20:43:56.453Z,12.60
2023-05-21T20:48:04.537Z,11.23
2023-05-21T20:52:09.597Z,9.93
2023-05-21T20:56:16.960Z,12.55
2023-05-21T21:00:22.570Z,10.07
2023-05-21T21:04:25.810Z,9.63
2023-05-21T21:08:31.256Z,12.68
2023-05-21T21:12:37.786Z,10.95
2023-05-21T21:16:43.482Z,8.73
2023-05-21T21:20:49.729Z,12.38
2023-05-21T21:24:58.919Z,13.77
2023-05-21T21:29:02.290Z,11.35
2023-05-21T21:33:08.884Z,14.13
2023-05-21T21:37:12.800Z,11.32
2023-05-21T21:41:19.474Z,12.68
2023-05-21T21:45:22.930Z,10.27
2023-05-21T21:49:28.840Z,9.98
2023-05-21T21:53:34.860Z,11.80
2023-05-21T21:57:40.307Z,10.98
2023-05-21T22:01:43.753Z,9.88
2023-05-21T22:05:50.791Z,9.63
2023-05-21T22:09:54.139Z,10.50
2023-05-21T22:14:05.547Z,11.23
2023-05-21T22:18:28.317Z,8.88
2023-05-21T22:22:42.338Z,10.30
2023-05-21T22:26:51.339Z,11.00
2023-05-21T22:30:59.009Z,12.00
2023-05-21T22:35:03.024Z,14.55
2023-05-21T22:39:06.137Z,14.85
2023-05-21T22:43:09.222Z,13.45
2023-05-21T22:47:14.110Z,10.93
2023-05-21T22:51:23.556Z,11.73
2023-05-21T22:55:37.625Z,13.75
2023-05-21T22:59:40.775Z,14.15
2023-05-21T23:03:52.716Z,11.77
2023-05-21T23:08:06.905Z,11.25
2023-05-21T23:12:13.391Z,12.95
2023-05-21T23:16:18.457Z,10.35
2023-05-21T23:20:25.769Z,14.93
2023-05-21T23:24:29.936Z,13.20
2023-05-21T23:28:33.643Z,14.57
2023-05-21T23:32:36.818Z,13.02
2023-05-21T23:36:41.318Z,13.50
2023-05-21T23:40:47.341Z,15.13
2023-05-21T23:44:53.345Z,15.18
2023-05-21T23:48:56.388Z,16.48
2023-05-21T23:53:00.993Z,13.55
2023-05-21T23:57:04.940Z,14.77
